Time;durP1;ratioP1;P1;durP2;ratioP2;P2;SDS_P1;SDS_P2;PMS_P1;PMS_P2;Temp;Humidity;BMP_temperature;BMP_pressure;BME280_temperature;BME280_humidity;BME280_pressure;Samples;Min_cycle;Max_cycle;Signal;HPM_P1;HPM_P2
2021/03/14 00:00:51;;;;;;;2.97;0.90;;;;;;;;;;5068496;28;20070;-66
2021/03/14 00:03:18;;;;;;;2.67;0.90;;;;;;;;;;5093298;28;20441;-66
2021/03/14 00:05:44;;;;;;;1.67;0.80;;;;;;;;;;5052408;28;20118;-65
2021/03/14 00:08:10;;;;;;;3.15;0.98;;;;;;;;;;5085191;28;20074;-66
2021/03/14 00:10:36;;;;;;;2.38;0.80;;;;;;;;;;5088719;28;20096;-65
2021/03/14 00:13:01;;;;;;;2.08;0.90;;;;;;;;;;5092742;28;20053;-65
2021/03/14 00:15:27;;;;;;;1.80;0.80;;;;;;;;;;5075536;28;20540;-64
2021/03/14 00:17:52;;;;;;;2.33;0.85;;;;;;;;;;5060068;28;20048;-64
2021/03/14 00:20:18;;;;;;;1.42;0.73;;;;;;;;;;5077167;28;20429;-65
2021/03/14 00:22:44;;;;;;;1.58;0.70;;;;;;;;;;5062269;28;20056;-67
2021/03/14 00:25:10;;;;;;;2.47;0.85;;;;;;;;;;5058570;28;20111;-67
2021/03/14 00:27:36;;;;;;;1.50;0.73;;;;;;;;;;5058449;28;20045;-66
2021/03/14 00:30:03;;;;;;;1.05;0.80;;;;;;;;;;5042806;28;20049;-65
2021/03/14 00:32:29;;;;;;;2.63;0.77;;;;;;;;;;5070210;28;20103;-66
2021/03/14 00:34:54;;;;;;;2.13;0.70;;;;;;;;;;5073996;28;20567;-66
2021/03/14 00:37:20;;;;;;;3.60;0.90;;;;;;;;;;5074322;28;20040;-65
2021/03/14 00:39:45;;;;;;;2.00;0.68;;;;;;;;;;5074076;28;20490;-65
2021/03/14 00:42:11;;;;;;;1.90;0.68;;;;;;;;;;5051148;28;20040;-67
2021/03/14 00:44:36;;;;;;;2.95;0.82;;;;;;;;;;5042205;28;20106;-66
2021/03/14 00:47:02;;;;;;;2.05;0.80;;;;;;;;;;5075521;28;20048;-65
2021/03/14 00:49:28;;;;;;;1.67;0.80;;;;;;;;;;5024800;28;20090;-66
2021/03/14 00:51:54;;;;;;;1.95;0.98;;;;;;;;;;5045252;28;20054;-64
2021/03/14 00:54:20;;;;;;;3.17;0.70;;;;;;;;;;5076421;28;20095;-67
2021/03/14 00:56:46;;;;;;;2.83;0.80;;;;;;;;;;5066355;28;20128;-66
2021/03/14 00:59:12;;;;;;;1.90;0.70;;;;;;;;;;5044820;28;20486;-66
2021/03/14 01:01:38;;;;;;;1.20;0.60;;;;;;;;;;5042439;28;20041;-66
2021/03/14 01:04:04;;;;;;;1.67;0.60;;;;;;;;;;5059276;28;20090;-67
2021/03/14 01:06:29;;;;;;;1.30;0.63;;;;;;;;;;5057069;28;20084;-67
2021/03/14 01:08:55;;;;;;;2.13;0.82;;;;;;;;;;5043853;28;20132;-67
2021/03/14 01:11:21;;;;;;;2.17;0.85;;;;;;;;;;5059075;28;20415;-67
2021/03/14 01:14:23;;;;;;;2.10;0.90;;;;;;;;;;5071345;28;20623;-66
2021/03/14 01:16:59;;;;;;;2.25;0.80;;;;;;;;;;5062344;28;20532;-67
2021/03/14 01:19:26;;;;;;;1.45;0.60;;;;;;;;;;5065802;28;20556;-68
2021/03/14 01:21:52;;;;;;;1.10;0.73;;;;;;;;;;5073308;28;20455;-67
2021/03/14 01:24:17;;;;;;;1.90;0.85;;;;;;;;;;5073325;28;20045;-66
2021/03/14 01:26:43;;;;;;;1.73;0.70;;;;;;;;;;5072515;28;20562;-65
2021/03/14 01:29:08;;;;;;;3.22;1.08;;;;;;;;;;5057133;28;20044;-66
2021/03/14 01:31:34;;;;;;;2.35;0.80;;;;;;;;;;5067908;28;20438;-65
2021/03/14 01:33:59;;;;;;;2.38;0.93;;;;;;;;;;5056622;28;20049;-65
2021/03/14 01:36:25;;;;;;;3.00;0.90;;;;;;;;;;5073830;28;20696;-66
2021/03/14 01:38:50;;;;;;;1.73;0.70;;;;;;;;;;5040437;28;20059;-66
2021/03/14 01:41:16;;;;;;;2.40;0.80;;;;;;;;;;5071196;28;20048;-66
2021/03/14 01:43:42;;;;;;;1.50;0.70;;;;;;;;;;5061162;28;20056;-64
2021/03/14 01:46:09;;;;;;;1.38;0.68;;;;;;;;;;5057381;28;20052;-65
2021/03/14 01:48:42;;;;;;;1.98;0.80;;;;;;;;;;5084587;28;20045;-64
2021/03/14 01:51:08;;;;;;;2.10;0.82;;;;;;;;;;5058798;28;20048;-66
2021/03/14 01:53:33;;;;;;;2.72;0.93;;;;;;;;;;5066571;28;20048;-66
2021/03/14 01:56:00;;;;;;;1.35;0.65;;;;;;;;;;5073626;28;20094;-65
2021/03/14 01:58:25;;;;;;;1.75;0.70;;;;;;;;;;5048294;28;20397;-65
2021/03/14 02:00:52;;;;;;;1.83;0.73;;;;;;;;;;5042523;28;20044;-66
2021/03/14 02:03:18;;;;;;;1.42;0.60;;;;;;;;;;5040964;28;20057;-65
2021/03/14 02:05:43;;;;;;;1.27;0.65;;;;;;;;;;5080148;28;20055;-66
2021/03/14 02:08:09;;;;;;;1.48;0.77;;;;;;;;;;5059317;28;20043;-66
2021/03/14 02:10:35;;;;;;;1.33;0.80;;;;;;;;;;5054760;28;20051;-66
2021/03/14 02:13:09;;;;;;;1.23;0.63;;;;;;;;;;5057209;28;20545;-66
2021/03/14 02:15:37;;;;;;;2.40;0.80;;;;;;;;;;5055450;28;20155;-67
2021/03/14 02:18:03;;;;;;;1.20;0.70;;;;;;;;;;5056155;28;20045;-67
2021/03/14 02:20:30;;;;;;;2.15;0.80;;;;;;;;;;5053305;28;20060;-66
2021/03/14 02:23:15;;;;;;;2.97;0.90;;;;;;;;;;5053979;28;20517;-67
2021/03/14 02:25:47;;;;;;;1.05;0.70;;;;;;;;;;5055406;28;20057;-65
2021/03/14 02:28:12;;;;;;;1.73;0.60;;;;;;;;;;5055711;28;20060;-65
2021/03/14 02:30:38;;;;;;;2.45;0.60;;;;;;;;;;5039347;28;20308;-66
2021/03/14 02:33:03;;;;;;;2.10;0.75;;;;;;;;;;5054429;28;20315;-67
2021/03/14 02:35:29;;;;;;;2.67;0.90;;;;;;;;;;5053418;28;20056;-65
2021/03/14 02:37:54;;;;;;;3.00;1.20;;;;;;;;;;5053450;28;20099;-66
2021/03/14 02:40:20;;;;;;;1.75;0.70;;;;;;;;;;5054136;28;20040;-66
2021/03/14 02:42:45;;;;;;;2.58;0.90;;;;;;;;;;5038691;28;20199;-65
2021/03/14 02:45:11;;;;;;;2.47;1.00;;;;;;;;;;5037545;28;20060;-65
2021/03/14 02:47:38;;;;;;;4.07;1.13;;;;;;;;;;5021149;28;20431;-65
2021/03/14 02:50:22;;;;;;;2.00;0.75;;;;;;;;;;5039928;28;20057;-66
2021/03/14 02:52:47;;;;;;;3.55;0.93;;;;;;;;;;5060549;28;20075;-65
2021/03/14 02:55:13;;;;;;;1.42;0.68;;;;;;;;;;5063528;28;20110;-65
2021/03/14 02:57:39;;;;;;;2.83;1.10;;;;;;;;;;5038156;28;20391;-65
2021/03/14 03:00:06;;;;;;;1.45;0.80;;;;;;;;;;5064751;28;20041;-66
2021/03/14 03:02:32;;;;;;;2.40;1.08;;;;;;;;;;5074609;28;20129;-66
2021/03/14 03:04:57;;;;;;;3.13;1.25;;;;;;;;;;5054987;28;20584;-65
2021/03/14 03:07:23;;;;;;;2.25;0.90;;;;;;;;;;5039270;28;20052;-66
2021/03/14 03:09:59;;;;;;;2.22;0.93;;;;;;;;;;5042682;28;20041;-67
2021/03/14 03:12:24;;;;;;;1.85;0.90;;;;;;;;;;5064538;28;20094;-66
2021/03/14 03:14:51;;;;;;;2.83;1.13;;;;;;;;;;5056004;28;20499;-66
2021/03/14 03:17:16;;;;;;;2.15;0.88;;;;;;;;;;5055794;28;20044;-65
2021/03/14 03:19:42;;;;;;;2.05;1.00;;;;;;;;;;5071932;28;20055;-65
2021/03/14 03:22:08;;;;;;;2.75;0.98;;;;;;;;;;5044839;28;20098;-65
2021/03/14 03:24:33;;;;;;;3.45;1.35;;;;;;;;;;5037098;28;20049;-66
2021/03/14 03:26:59;;;;;;;1.60;0.85;;;;;;;;;;5052311;28;20044;-65
2021/03/14 03:29:24;;;;;;;1.88;0.93;;;;;;;;;;5024175;28;20099;-66
2021/03/14 03:31:50;;;;;;;2.25;0.95;;;;;;;;;;5053688;28;20546;-66
2021/03/14 03:34:15;;;;;;;3.38;0.98;;;;;;;;;;5043550;28;20547;-65
2021/03/14 03:36:42;;;;;;;2.58;1.00;;;;;;;;;;5053815;28;20056;-66
2021/03/14 03:39:10;;;;;;;2.63;1.10;;;;;;;;;;5040772;28;20040;-66
2021/03/14 03:41:47;;;;;;;2.90;1.20;;;;;;;;;;5038907;28;20079;-65
2021/03/14 03:44:13;;;;;;;1.67;0.82;;;;;;;;;;5071699;28;20494;-65
2021/03/14 03:46:39;;;;;;;1.85;0.82;;;;;;;;;;5053159;28;20049;-66
2021/03/14 03:49:04;;;;;;;2.42;1.02;;;;;;;;;;5040316;28;20032;-66
2021/03/14 03:51:30;;;;;;;2.38;0.93;;;;;;;;;;5054686;28;20041;-67
2021/03/14 03:53:57;;;;;;;2.72;1.08;;;;;;;;;;5056428;28;20055;-66
2021/03/14 03:56:23;;;;;;;2.97;0.80;;;;;;;;;;5037247;28;21000;-66
2021/03/14 03:58:48;;;;;;;2.70;1.00;;;;;;;;;;5038638;28;20096;-65
2021/03/14 04:01:14;;;;;;;2.65;1.02;;;;;;;;;;5057341;28;20059;-66
2021/03/14 04:03:40;;;;;;;2.97;0.88;;;;;;;;;;5040096;28;20052;-66
2021/03/14 04:06:06;;;;;;;1.75;1.00;;;;;;;;;;5060037;28;20044;-65
2021/03/14 04:08:31;;;;;;;2.42;0.90;;;;;;;;;;5040470;28;20463;-66
2021/03/14 04:10:57;;;;;;;2.45;0.95;;;;;;;;;;5058632;28;20045;-65
2021/03/14 04:13:23;;;;;;;3.63;1.23;;;;;;;;;;5042351;28;20037;-66
2021/03/14 04:15:48;;;;;;;2.65;1.00;;;;;;;;;;5057878;28;20068;-66
2021/03/14 04:18:14;;;;;;;2.58;1.00;;;;;;;;;;5059172;28;20517;-66
2021/03/14 04:20:40;;;;;;;2.70;1.20;;;;;;;;;;5072874;28;20037;-66
2021/03/14 04:23:09;;;;;;;3.58;1.25;;;;;;;;;;5059486;28;20802;-66
2021/03/14 04:25:35;;;;;;;3.47;1.40;;;;;;;;;;5058241;28;20036;-66
2021/03/14 04:28:00;;;;;;;2.42;1.10;;;;;;;;;;5043255;28;20049;-67
2021/03/14 04:30:26;;;;;;;1.98;1.20;;;;;;;;;;5057448;28;20037;-65
2021/03/14 04:32:53;;;;;;;2.42;1.15;;;;;;;;;;5058758;28;20510;-66
2021/03/14 04:35:18;;;;;;;2.22;1.23;;;;;;;;;;5041107;28;20044;-66
2021/03/14 04:37:44;;;;;;;2.88;1.33;;;;;;;;;;5066289;28;20055;-66
2021/03/14 04:40:10;;;;;;;3.05;1.33;;;;;;;;;;5061676;28;20535;-66
2021/03/14 04:42:37;;;;;;;3.55;1.17;;;;;;;;;;5075691;28;20050;-65
2021/03/14 04:45:04;;;;;;;3.05;1.25;;;;;;;;;;5059640;28;20106;-65
2021/03/14 04:47:30;;;;;;;2.88;1.25;;;;;;;;;;5072735;28;20041;-65
2021/03/14 04:49:55;;;;;;;3.08;1.20;;;;;;;;;;5069782;28;20049;-66
2021/03/14 04:52:21;;;;;;;3.47;1.27;;;;;;;;;;5059765;28;20445;-67
2021/03/14 04:54:48;;;;;;;3.97;1.30;;;;;;;;;;5040226;28;20053;-66
2021/03/14 04:57:15;;;;;;;4.25;1.48;;;;;;;;;;5042220;28;20040;-68
2021/03/14 04:59:40;;;;;;;3.38;1.35;;;;;;;;;;5069285;28;20048;-66
2021/03/14 05:02:06;;;;;;;3.85;1.40;;;;;;;;;;5057747;28;20414;-66
2021/03/14 05:04:31;;;;;;;2.80;1.67;;;;;;;;;;5057272;28;20106;-66
2021/03/14 05:06:57;;;;;;;3.17;1.60;;;;;;;;;;5073725;28;20115;-66
2021/03/14 05:09:22;;;;;;;2.33;1.25;;;;;;;;;;5057107;28;20049;-67
2021/03/14 05:11:48;;;;;;;3.53;1.27;;;;;;;;;;5071590;28;20044;-66
2021/03/14 05:14:13;;;;;;;2.38;1.30;;;;;;;;;;5061307;28;20475;-66
2021/03/14 05:16:43;;;;;;;3.20;1.50;;;;;;;;;;5055775;28;20037;-66
2021/03/14 05:19:08;;;;;;;4.13;1.60;;;;;;;;;;5058130;28;20102;-66
2021/03/14 05:21:34;;;;;;;2.88;1.58;;;;;;;;;;5058816;28;20107;-66
2021/03/14 05:24:00;;;;;;;4.18;1.42;;;;;;;;;;5056974;28;20041;-65
2021/03/14 05:26:25;;;;;;;3.35;1.60;;;;;;;;;;5057261;28;20676;-66
2021/03/14 05:28:51;;;;;;;3.83;1.80;;;;;;;;;;5057563;28;20052;-66
2021/03/14 05:31:32;;;;;;;3.20;1.50;;;;;;;;;;5041110;28;20043;-67
2021/03/14 05:33:58;;;;;;;3.47;1.80;;;;;;;;;;5075866;28;20044;-67
2021/03/14 05:36:25;;;;;;;3.00;1.60;;;;;;;;;;5057638;28;20391;-67
2021/03/14 05:38:51;;;;;;;2.70;1.20;;;;;;;;;;5042669;28;20422;-67
2021/03/14 05:41:16;;;;;;;3.25;1.30;;;;;;;;;;5064872;28;20049;-67
2021/03/14 05:43:43;;;;;;;3.92;1.40;;;;;;;;;;5051547;28;20052;-62
2021/03/14 05:46:10;;;;;;;4.07;1.45;;;;;;;;;;5058083;28;20040;-64
2021/03/14 05:48:36;;;;;;;3.22;1.30;;;;;;;;;;5059092;28;20047;-65
2021/03/14 05:51:02;;;;;;;2.70;1.08;;;;;;;;;;5073412;28;20052;-66
2021/03/14 05:53:27;;;;;;;2.75;1.10;;;;;;;;;;5040836;28;20035;-65
2021/03/14 05:55:53;;;;;;;2.17;0.80;;;;;;;;;;5043264;28;20053;-65
2021/03/14 05:58:18;;;;;;;3.50;1.20;;;;;;;;;;5059762;28;20040;-65
2021/03/14 06:00:46;;;;;;;2.55;1.38;;;;;;;;;;5056494;28;20048;-65
2021/03/14 06:03:11;;;;;;;5.63;1.65;;;;;;;;;;5050197;28;20098;-65
2021/03/14 06:05:37;;;;;;;2.00;1.15;;;;;;;;;;5055498;28;20105;-65
2021/03/14 06:08:03;;;;;;;4.22;1.52;;;;;;;;;;5043193;28;20047;-66
2021/03/14 06:10:28;;;;;;;3.63;1.70;;;;;;;;;;5065619;28;20656;-65
2021/03/14 06:12:54;;;;;;;4.70;1.90;;;;;;;;;;5057233;28;20509;-65
2021/03/14 06:15:19;;;;;;;3.13;1.60;;;;;;;;;;5073298;28;20052;-65
2021/03/14 06:17:45;;;;;;;4.57;1.92;;;;;;;;;;5072960;28;20049;-66
2021/03/14 06:20:31;;;;;;;2.85;1.52;;;;;;;;;;5057590;28;20399;-67
2021/03/14 06:23:09;;;;;;;2.63;1.38;;;;;;;;;;5073197;28;20130;-66
2021/03/14 06:25:35;;;;;;;4.35;1.95;;;;;;;;;;5055043;28;20044;-66
2021/03/14 06:28:00;;;;;;;3.67;1.67;;;;;;;;;;5069121;28;20069;-66
2021/03/14 06:30:28;;;;;;;4.35;1.80;;;;;;;;;;5054432;28;20048;-67
2021/03/14 06:33:12;;;;;;;5.28;1.92;;;;;;;;;;5057827;28;20120;-65
2021/03/14 06:36:04;;;;;;;3.63;1.60;;;;;;;;;;5080137;28;20170;-67
2021/03/14 06:38:31;;;;;;;5.00;1.65;;;;;;;;;;5069774;28;20131;-66
2021/03/14 06:41:06;;;;;;;4.55;1.63;;;;;;;;;;5056040;28;20045;-65
2021/03/14 06:43:33;;;;;;;3.38;1.40;;;;;;;;;;5069438;28;20566;-65
2021/03/14 06:45:58;;;;;;;2.65;1.40;;;;;;;;;;5071067;28;20119;-65
2021/03/14 06:48:25;;;;;;;2.85;1.40;;;;;;;;;;5063819;28;20557;-66
2021/03/14 06:50:50;;;;;;;3.70;1.50;;;;;;;;;;5074225;28;20055;-67
2021/03/14 06:53:21;;;;;;;3.17;1.40;;;;;;;;;;5070614;28;20502;-66
2021/03/14 06:55:48;;;;;;;4.20;1.50;;;;;;;;;;5072426;28;20557;-66
2021/03/14 06:58:26;;;;;;;4.35;1.70;;;;;;;;;;5038558;28;20120;-67
2021/03/14 07:01:05;;;;;;;3.83;1.50;;;;;;;;;;5065859;28;20517;-66
2021/03/14 07:03:31;;;;;;;4.35;1.73;;;;;;;;;;5062589;28;20049;-66
2021/03/14 07:06:15;;;;;;;3.13;1.30;;;;;;;;;;5045206;28;20434;-65
2021/03/14 07:08:41;;;;;;;4.20;1.73;;;;;;;;;;5072629;28;20055;-65
2021/03/14 07:11:07;;;;;;;3.55;1.50;;;;;;;;;;5060749;28;20528;-66
2021/03/14 07:13:33;;;;;;;4.18;1.60;;;;;;;;;;5056125;28;20041;-66
2021/03/14 07:15:59;;;;;;;2.60;1.27;;;;;;;;;;5054937;28;20037;-65
2021/03/14 07:18:25;;;;;;;3.80;1.35;;;;;;;;;;5054717;28;20045;-67
2021/03/14 07:20:51;;;;;;;4.28;1.40;;;;;;;;;;5053656;28;20148;-66
2021/03/14 07:23:17;;;;;;;3.83;1.52;;;;;;;;;;5073840;28;20053;-65
2021/03/14 07:25:46;;;;;;;4.05;1.40;;;;;;;;;;5042420;28;20051;-65
2021/03/14 07:28:12;;;;;;;3.10;1.33;;;;;;;;;;5073565;28;20040;-66
2021/03/14 07:30:38;;;;;;;3.55;1.48;;;;;;;;;;5070510;28;20049;-65
2021/03/14 07:33:03;;;;;;;3.53;1.70;;;;;;;;;;5037863;28;20044;-66
2021/03/14 07:35:29;;;;;;;3.42;1.55;;;;;;;;;;5063277;28;20049;-66
2021/03/14 07:37:55;;;;;;;3.20;1.40;;;;;;;;;;5054736;28;20522;-65
2021/03/14 07:40:22;;;;;;;3.67;1.70;;;;;;;;;;5041059;28;20051;-66
2021/03/14 07:42:48;;;;;;;3.08;1.50;;;;;;;;;;5062380;28;20084;-66
2021/03/14 07:45:15;;;;;;;3.90;1.73;;;;;;;;;;5060300;28;20045;-65
2021/03/14 07:47:41;;;;;;;3.75;1.52;;;;;;;;;;5066962;28;20044;-66
2021/03/14 07:50:09;;;;;;;4.43;1.67;;;;;;;;;;5044636;28;20045;-65
2021/03/14 07:52:34;;;;;;;3.83;2.05;;;;;;;;;;5040698;28;20052;-66
2021/03/14 07:55:23;;;;;;;4.05;1.80;;;;;;;;;;5043686;28;20148;-65
2021/03/14 07:57:49;;;;;;;5.15;1.80;;;;;;;;;;5070198;28;20060;-66
2021/03/14 08:00:25;;;;;;;4.32;2.10;;;;;;;;;;5058586;28;20485;-66
2021/03/14 08:02:54;;;;;;;4.25;2.10;;;;;;;;;;5073569;28;20048;-69
2021/03/14 08:05:44;;;;;;;5.47;2.25;;;;;;;;;;5057075;28;20041;-68
2021/03/14 08:08:10;;;;;;;5.75;2.03;;;;;;;;;;5058112;28;20048;-69
2021/03/14 08:10:45;;;;;;;4.65;2.08;;;;;;;;;;5066816;28;20050;-69
2021/03/14 08:13:37;;;;;;;3.65;2.17;;;;;;;;;;5076860;28;20075;-68
2021/03/14 08:16:10;;;;;;;5.00;2.10;;;;;;;;;;5074496;28;20475;-69
2021/03/14 08:18:42;;;;;;;4.85;2.20;;;;;;;;;;5056389;28;20754;-70
2021/03/14 08:21:20;;;;;;;3.92;2.20;;;;;;;;;;5077926;28;20045;-68
2021/03/14 08:23:50;;;;;;;4.43;2.30;;;;;;;;;;5075540;28;20041;-70
2021/03/14 08:26:20;;;;;;;5.43;2.00;;;;;;;;;;5076919;28;20048;-68
2021/03/14 08:28:59;;;;;;;4.45;1.90;;;;;;;;;;5075828;28;20127;-67
2021/03/14 08:31:42;;;;;;;4.50;2.08;;;;;;;;;;5068339;28;20033;-66
2021/03/14 08:34:30;;;;;;;4.75;2.15;;;;;;;;;;5074925;28;20047;-69
2021/03/14 08:36:58;;;;;;;4.82;2.45;;;;;;;;;;5059070;28;20557;-68
2021/03/14 08:39:36;;;;;;;4.55;2.38;;;;;;;;;;5041764;28;20053;-68
2021/03/14 08:42:24;;;;;;;4.95;2.58;;;;;;;;;;5052843;28;20094;-69
2021/03/14 08:44:55;;;;;;;6.75;3.05;;;;;;;;;;5043515;28;20132;-68
2021/03/14 08:47:41;;;;;;;5.20;2.60;;;;;;;;;;5073728;28;20059;-68
2021/03/14 08:50:12;;;;;;;4.75;2.40;;;;;;;;;;5045320;28;20083;-68
2021/03/14 08:53:04;;;;;;;4.38;2.35;;;;;;;;;;5058580;28;20514;-69
2021/03/14 08:55:49;;;;;;;1.65;1.00;;;;;;;;;;5044594;28;20041;-69
2021/03/14 08:58:15;;;;;;;2.40;1.17;;;;;;;;;;5060471;28;20501;-69
2021/03/14 09:00:59;;;;;;;2.65;1.10;;;;;;;;;;5085028;28;20064;-69
2021/03/14 09:03:25;;;;;;;2.55;1.10;;;;;;;;;;5042754;28;20049;-69
2021/03/14 09:06:12;;;;;;;2.38;1.08;;;;;;;;;;5041634;28;20772;-68
2021/03/14 09:08:38;;;;;;;4.10;2.10;;;;;;;;;;5073849;28;20051;-68
2021/03/14 09:11:04;;;;;;;4.30;2.10;;;;;;;;;;5077021;28;20047;-70
2021/03/14 09:13:29;;;;;;;5.07;2.20;;;;;;;;;;5058787;28;20044;-69
2021/03/14 09:16:40;;;;;;;5.03;2.40;;;;;;;;;;5057060;28;20059;-68
2021/03/14 09:19:06;;;;;;;5.75;2.58;;;;;;;;;;5057039;28;20050;-67
2021/03/14 09:21:51;;;;;;;5.68;2.90;;;;;;;;;;5055651;28;20037;-67
2021/03/14 09:24:26;;;;;;;5.93;2.78;;;;;;;;;;5055455;28;20041;-68
2021/03/14 09:27:03;;;;;;;4.55;2.60;;;;;;;;;;5071293;28;20045;-67
2021/03/14 09:29:50;;;;;;;6.25;3.60;;;;;;;;;;5057147;28;20068;-67
2021/03/14 09:32:20;;;;;;;6.30;3.83;;;;;;;;;;5074990;28;20046;-67
2021/03/14 09:34:46;;;;;;;3.33;2.30;;;;;;;;;;5075086;28;20041;-68
2021/03/14 09:37:25;;;;;;;3.85;2.33;;;;;;;;;;5057020;28;20115;-69
2021/03/14 09:40:14;;;;;;;3.25;2.03;;;;;;;;;;5056977;28;20095;-68
2021/03/14 09:42:40;;;;;;;3.53;1.90;;;;;;;;;;5074315;28;20102;-69
2021/03/14 09:45:22;;;;;;;2.05;1.50;;;;;;;;;;5051094;28;20551;-71
2021/03/14 09:48:16;;;;;;;3.10;1.70;;;;;;;;;;5049602;28;20052;-71
2021/03/14 09:50:58;;;;;;;10.45;5.88;;;;;;;;;;5059769;28;20049;-69
2021/03/14 09:53:31;;;;;;;2.65;1.60;;;;;;;;;;5043746;28;20044;-69
2021/03/14 09:56:05;;;;;;;3.70;2.00;;;;;;;;;;5041643;28;20111;-70
2021/03/14 09:58:51;;;;;;;4.55;3.10;;;;;;;;;;5073155;28;20045;-70
2021/03/14 10:01:17;;;;;;;2.72;2.08;;;;;;;;;;5056572;28;20037;-71
2021/03/14 10:03:43;;;;;;;1.90;1.40;;;;;;;;;;5021957;28;20091;-70
2021/03/14 10:06:18;;;;;;;1.60;1.20;;;;;;;;;;5058345;28;20048;-71
2021/03/14 10:08:55;;;;;;;2.33;1.27;;;;;;;;;;5059777;28;20490;-70
2021/03/14 10:11:21;;;;;;;2.08;1.20;;;;;;;;;;5039245;28;20049;-70
2021/03/14 10:13:55;;;;;;;1.48;1.05;;;;;;;;;;5041385;28;20138;-71
2021/03/14 10:16:22;;;;;;;1.83;1.08;;;;;;;;;;5065094;28;20041;-71
2021/03/14 10:18:57;;;;;;;2.33;1.40;;;;;;;;;;5043536;28;20072;-70
2021/03/14 10:21:25;;;;;;;2.88;1.70;;;;;;;;;;5058222;28;20044;-71
2021/03/14 10:24:16;;;;;;;3.00;2.00;;;;;;;;;;5069325;28;20115;-70
2021/03/14 10:26:58;;;;;;;1.75;1.40;;;;;;;;;;5070432;28;20084;-70
2021/03/14 10:29:32;;;;;;;1.77;1.27;;;;;;;;;;5065729;28;20460;-69
2021/03/14 10:32:30;;;;;;;1.85;1.20;;;;;;;;;;5064210;28;20059;-70
2021/03/14 10:35:03;;;;;;;3.38;2.50;;;;;;;;;;5057020;28;20475;-69
2021/03/14 10:37:32;;;;;;;1.77;1.40;;;;;;;;;;5039477;28;20045;-71
2021/03/14 10:40:06;;;;;;;2.05;1.38;;;;;;;;;;5041534;28;20068;-71
2021/03/14 10:42:34;;;;;;;1.50;1.33;;;;;;;;;;5072552;28;20041;-69
2021/03/14 10:45:08;;;;;;;1.75;1.40;;;;;;;;;;5040891;28;20048;-69
2021/03/14 10:47:35;;;;;;;1.40;1.20;;;;;;;;;;5032012;28;20049;-69
2021/03/14 10:50:16;;;;;;;1.98;1.30;;;;;;;;;;5056398;28;20140;-72
2021/03/14 10:52:43;;;;;;;1.92;1.63;;;;;;;;;;5074017;28;20923;-69
2021/03/14 10:55:30;;;;;;;2.47;1.40;;;;;;;;;;5042623;28;21014;-68
2021/03/14 10:58:18;;;;;;;5.47;2.92;;;;;;;;;;5055974;28;20156;-69
2021/03/14 11:01:07;;;;;;;2.03;1.42;;;;;;;;;;5056908;28;20664;-71
2021/03/14 11:03:37;;;;;;;2.67;1.95;;;;;;;;;;5070628;28;20403;-70
2021/03/14 11:06:17;;;;;;;3.45;2.40;;;;;;;;;;5060322;28;20495;-70
2021/03/14 11:09:10;;;;;;;3.10;2.00;;;;;;;;;;5081181;28;20119;-68
2021/03/14 11:11:45;;;;;;;5.05;3.22;;;;;;;;;;5068068;28;20048;-65
2021/03/14 11:14:40;;;;;;;2.95;2.05;;;;;;;;;;5053201;28;20056;-67
2021/03/14 11:17:16;;;;;;;6.55;5.15;;;;;;;;;;5060843;28;20045;-68
2021/03/14 11:19:54;;;;;;;2.40;1.77;;;;;;;;;;5062605;28;20037;-67
2021/03/14 11:22:22;;;;;;;2.88;2.00;;;;;;;;;;5058284;28;20048;-68
2021/03/14 11:24:51;;;;;;;3.65;2.50;;;;;;;;;;5054650;28;20597;-68
2021/03/14 11:27:19;;;;;;;3.47;2.17;;;;;;;;;;5072051;28;20114;-70
2021/03/14 11:29:45;;;;;;;2.47;2.05;;;;;;;;;;5072907;28;20518;-68
2021/03/14 11:32:18;;;;;;;3.00;2.05;;;;;;;;;;5029679;28;20055;-70
2021/03/14 11:34:58;;;;;;;5.28;2.55;;;;;;;;;;5062823;28;20184;-68
2021/03/14 11:37:35;;;;;;;5.47;2.72;;;;;;;;;;5072666;28;20052;-68
2021/03/14 11:40:26;;;;;;;10.25;6.50;;;;;;;;;;5052001;28;20056;-67
2021/03/14 11:43:02;;;;;;;4.53;3.25;;;;;;;;;;5033962;28;20049;-70
2021/03/14 11:45:37;;;;;;;3.42;2.90;;;;;;;;;;5073483;28;20045;-68
2021/03/14 11:48:03;;;;;;;3.67;2.63;;;;;;;;;;5080380;28;20137;-68
2021/03/14 11:50:32;;;;;;;9.25;5.93;;;;;;;;;;5059582;28;20491;-69
2021/03/14 11:52:58;;;;;;;9.10;4.90;;;;;;;;;;5060078;28;20592;-67
2021/03/14 11:55:30;;;;;;;7.28;4.43;;;;;;;;;;5067379;28;20091;-67
2021/03/14 11:57:55;;;;;;;4.72;3.50;;;;;;;;;;5066233;28;20536;-67
2021/03/14 12:00:21;;;;;;;7.10;4.60;;;;;;;;;;5075614;28;20037;-66
2021/03/14 12:02:51;;;;;;;7.63;4.88;;;;;;;;;;5074360;28;20049;-67
2021/03/14 12:05:24;;;;;;;5.03;2.80;;;;;;;;;;5071113;28;20045;-68
2021/03/14 12:07:50;;;;;;;7.10;4.10;;;;;;;;;;5072068;28;20045;-67
2021/03/14 12:10:16;;;;;;;6.55;3.80;;;;;;;;;;5061105;28;20457;-68
2021/03/14 12:12:41;;;;;;;6.13;4.07;;;;;;;;;;5072070;28;20044;-67
2021/03/14 12:15:15;;;;;;;8.30;4.85;;;;;;;;;;5047234;28;20139;-66
2021/03/14 12:17:45;;;;;;;4.15;2.50;;;;;;;;;;5074258;28;20106;-66
2021/03/14 12:20:16;;;;;;;5.75;3.72;;;;;;;;;;5056018;28;20056;-67
2021/03/14 12:22:56;;;;;;;6.07;3.83;;;;;;;;;;5080612;28;20040;-66
2021/03/14 12:25:24;;;;;;;4.95;3.22;;;;;;;;;;5040690;28;20911;-67
2021/03/14 12:27:50;;;;;;;4.15;2.90;;;;;;;;;;5080109;28;20098;-67
2021/03/14 12:30:16;;;;;;;4.95;3.25;;;;;;;;;;5074661;28;20134;-68
2021/03/14 12:32:42;;;;;;;5.15;3.38;;;;;;;;;;5073854;28;20669;-66
2021/03/14 12:35:16;;;;;;;3.47;2.70;;;;;;;;;;5074461;28;20045;-66
2021/03/14 12:37:44;;;;;;;4.30;2.90;;;;;;;;;;5041476;28;20036;-65
2021/03/14 12:40:12;;;;;;;5.22;3.13;;;;;;;;;;5057584;28;20098;-69
2021/03/14 12:42:37;;;;;;;4.03;2.97;;;;;;;;;;5069501;28;20095;-70
2021/03/14 12:45:11;;;;;;;4.63;3.15;;;;;;;;;;5082750;28;20049;-69
2021/03/14 12:47:37;;;;;;;4.75;3.40;;;;;;;;;;5068281;28;20037;-69
2021/03/14 12:50:08;;;;;;;5.25;3.58;;;;;;;;;;5071515;28;20099;-71
2021/03/14 12:52:37;;;;;;;4.95;3.25;;;;;;;;;;5044779;28;20129;-71
2021/03/14 12:55:03;;;;;;;5.85;3.47;;;;;;;;;;5066322;28;20104;-68
2021/03/14 12:57:29;;;;;;;4.57;3.22;;;;;;;;;;5064877;28;20338;-67
2021/03/14 12:59:55;;;;;;;5.15;3.85;;;;;;;;;;5027488;28;20075;-67
2021/03/14 13:02:21;;;;;;;6.28;3.40;;;;;;;;;;5062753;28;20044;-70
2021/03/14 13:04:46;;;;;;;3.95;2.92;;;;;;;;;;5046241;28;20041;-67
2021/03/14 13:07:12;;;;;;;4.55;3.10;;;;;;;;;;5074184;28;20040;-68
2021/03/14 13:09:37;;;;;;;9.85;6.07;;;;;;;;;;5061110;28;20041;-68
2021/03/14 13:12:06;;;;;;;7.90;4.57;;;;;;;;;;5066152;28;20045;-70
2021/03/14 13:14:34;;;;;;;4.55;2.90;;;;;;;;;;5045905;28;20044;-68
2021/03/14 13:17:00;;;;;;;7.72;4.50;;;;;;;;;;5070581;28;20052;-69
2021/03/14 13:19:26;;;;;;;5.55;3.80;;;;;;;;;;5057703;28;20063;-68
2021/03/14 13:21:52;;;;;;;6.85;4.47;;;;;;;;;;5073981;28;20049;-67
2021/03/14 13:24:17;;;;;;;7.32;4.38;;;;;;;;;;5077135;28;20049;-68
2021/03/14 13:26:43;;;;;;;5.07;3.38;;;;;;;;;;5080270;28;20041;-69
2021/03/14 13:29:08;;;;;;;3.30;2.53;;;;;;;;;;5045144;28;20059;-74
2021/03/14 13:31:35;;;;;;;5.93;4.10;;;;;;;;;;5058592;28;20125;-68
2021/03/14 13:34:01;;;;;;;5.22;3.45;;;;;;;;;;5075019;28;20067;-68
2021/03/14 13:36:28;;;;;;;4.03;2.92;;;;;;;;;;5062398;28;20479;-68
2021/03/14 13:38:53;;;;;;;3.70;2.90;;;;;;;;;;5073566;28;20048;-67
2021/03/14 13:41:19;;;;;;;5.25;3.15;;;;;;;;;;5076138;28;20487;-66
2021/03/14 13:43:44;;;;;;;19.35;11.93;;;;;;;;;;5072817;28;20044;-64
2021/03/14 13:46:10;;;;;;;10.88;7.63;;;;;;;;;;5070763;28;20060;-65
2021/03/14 13:48:35;;;;;;;16.88;11.98;;;;;;;;;;5055132;28;20040;-63
2021/03/14 13:51:02;;;;;;;9.88;6.43;;;;;;;;;;5071415;28;20039;-64
2021/03/14 13:53:28;;;;;;;6.55;3.80;;;;;;;;;;5073121;28;20045;-64
2021/03/14 13:55:53;;;;;;;5.93;3.60;;;;;;;;;;5054726;28;20131;-64
2021/03/14 13:58:20;;;;;;;5.50;3.97;;;;;;;;;;5065057;28;20045;-63
2021/03/14 14:00:45;;;;;;;4.93;3.40;;;;;;;;;;5069132;28;20049;-63
2021/03/14 14:03:11;;;;;;;4.20;2.42;;;;;;;;;;5060539;28;20462;-67
2021/03/14 14:05:36;;;;;;;3.47;2.40;;;;;;;;;;5072598;28;20040;-62
2021/03/14 14:08:02;;;;;;;4.00;2.75;;;;;;;;;;5072055;28;20052;-65
2021/03/14 14:10:28;;;;;;;3.80;2.50;;;;;;;;;;5060479;28;20071;-65
2021/03/14 14:12:53;;;;;;;4.03;2.85;;;;;;;;;;5054827;28;20483;-66
2021/03/14 14:15:19;;;;;;;5.38;3.38;;;;;;;;;;5066237;28;20839;-65
2021/03/14 14:17:44;;;;;;;5.32;3.58;;;;;;;;;;5071549;28;20772;-68
2021/03/14 14:20:11;;;;;;;6.75;4.82;;;;;;;;;;5052581;28;20124;-67
2021/03/14 14:22:36;;;;;;;3.72;2.65;;;;;;;;;;5061104;28;20049;-68
2021/03/14 14:25:04;;;;;;;3.03;2.20;;;;;;;;;;5055125;28;20049;-67
2021/03/14 14:27:30;;;;;;;3.55;2.30;;;;;;;;;;5048490;28;20064;-66
2021/03/14 14:29:56;;;;;;;3.72;2.45;;;;;;;;;;5061904;28;20049;-65
2021/03/14 14:32:21;;;;;;;3.50;2.15;;;;;;;;;;5053888;28;20049;-66
2021/03/14 14:34:47;;;;;;;2.97;2.22;;;;;;;;;;5072680;28;20533;-69
2021/03/14 14:37:12;;;;;;;4.03;2.20;;;;;;;;;;5080243;28;20479;-69
2021/03/14 14:39:38;;;;;;;3.53;2.30;;;;;;;;;;5058083;28;20053;-68
2021/03/14 14:42:04;;;;;;;3.20;2.28;;;;;;;;;;5070789;28;20056;-69
2021/03/14 14:44:29;;;;;;;3.17;2.10;;;;;;;;;;5078101;28;20045;-67
2021/03/14 14:46:55;;;;;;;3.15;2.38;;;;;;;;;;5045305;28;20461;-72
2021/03/14 14:49:20;;;;;;;4.00;2.83;;;;;;;;;;5070698;28;20033;-69
2021/03/14 14:51:46;;;;;;;3.60;1.90;;;;;;;;;;5025511;28;20040;-67
2021/03/14 14:54:11;;;;;;;2.72;2.15;;;;;;;;;;5071669;28;20551;-68
2021/03/14 14:56:37;;;;;;;3.05;2.47;;;;;;;;;;5075885;28;20084;-69